sensor_id;sensor_type;location;lat;lon;timestamp;P1;durP1;ratioP1;P2;durP2;ratioP2
60016;SDS011;45869;52.698;6.210;2023-04-15T00:01:51;8.15;;;4.00;;
60016;SDS011;45869;52.698;6.210;2023-04-15T00:04:17;7.28;;;4.38;;
60016;SDS011;45869;52.698;6.210;2023-04-15T00:06:48;8.35;;;4.63;;
60016;SDS011;45869;52.698;6.210;2023-04-15T00:09:15;8.93;;;4.80;;
60016;SDS011;45869;52.698;6.210;2023-04-15T00:11:41;9.40;;;4.43;;
60016;SDS011;45869;52.698;6.210;2023-04-15T00:14:07;9.95;;;5.13;;
60016;SDS011;45869;52.698;6.210;2023-04-15T00:16:33;8.50;;;5.30;;
60016;SDS011;45869;52.698;6.210;2023-04-15T00:18:59;8.15;;;4.53;;
60016;SDS011;45869;52.698;6.210;2023-04-15T00:21:25;8.45;;;5.13;;
60016;SDS011;45869;52.698;6.210;2023-04-15T00:23:53;8.98;;;4.88;;
60016;SDS011;45869;52.698;6.210;2023-04-15T00:26:19;7.82;;;4.50;;
60016;SDS011;45869;52.698;6.210;2023-04-15T00:28:45;8.52;;;4.85;;
60016;SDS011;45869;52.698;6.210;2023-04-15T00:31:11;8.02;;;5.18;;
60016;SDS011;45869;52.698;6.210;2023-04-15T00:33:38;10.10;;;5.38;;
60016;SDS011;45869;52.698;6.210;2023-04-15T00:36:05;7.10;;;4.30;;
60016;SDS011;45869;52.698;6.210;2023-04-15T00:38:32;7.78;;;4.30;;
60016;SDS011;45869;52.698;6.210;2023-04-15T00:40:58;7.00;;;4.75;;
60016;SDS011;45869;52.698;6.210;2023-04-15T00:43:24;10.18;;;5.22;;
60016;SDS011;45869;52.698;6.210;2023-04-15T00:45:52;8.45;;;4.95;;
60016;SDS011;45869;52.698;6.210;2023-04-15T00:48:19;9.07;;;5.03;;
60016;SDS011;45869;52.698;6.210;2023-04-15T00:50:48;7.97;;;4.90;;
60016;SDS011;45869;52.698;6.210;2023-04-15T00:53:14;9.00;;;5.28;;
60016;SDS011;45869;52.698;6.210;2023-04-15T00:55:40;7.07;;;4.45;;
60016;SDS011;45869;52.698;6.210;2023-04-15T00:58:06;7.43;;;5.00;;
60016;SDS011;45869;52.698;6.210;2023-04-15T01:00:32;12.30;;;5.97;;
60016;SDS011;45869;52.698;6.210;2023-04-15T01:02:59;7.13;;;4.63;;
60016;SDS011;45869;52.698;6.210;2023-04-15T01:05:25;8.15;;;4.72;;
60016;SDS011;45869;52.698;6.210;2023-04-15T01:07:51;10.35;;;5.47;;
60016;SDS011;45869;52.698;6.210;2023-04-15T01:10:18;9.55;;;5.70;;
60016;SDS011;45869;52.698;6.210;2023-04-15T01:12:45;6.70;;;4.57;;
60016;SDS011;45869;52.698;6.210;2023-04-15T01:15:11;9.48;;;5.03;;
60016;SDS011;45869;52.698;6.210;2023-04-15T01:17:38;8.38;;;4.88;;
60016;SDS011;45869;52.698;6.210;2023-04-15T01:20:04;7.85;;;5.00;;
60016;SDS011;45869;52.698;6.210;2023-04-15T01:22:30;8.07;;;5.22;;
60016;SDS011;45869;52.698;6.210;2023-04-15T01:25:04;12.15;;;5.93;;
60016;SDS011;45869;52.698;6.210;2023-04-15T01:27:32;7.93;;;4.82;;
60016;SDS011;45869;52.698;6.210;2023-04-15T01:29:59;7.07;;;5.10;;
60016;SDS011;45869;52.698;6.210;2023-04-15T01:32:26;10.20;;;5.30;;
60016;SDS011;45869;52.698;6.210;2023-04-15T01:34:52;9.05;;;5.57;;
60016;SDS011;45869;52.698;6.210;2023-04-15T01:37:18;7.65;;;4.88;;
60016;SDS011;45869;52.698;6.210;2023-04-15T01:39:44;10.15;;;5.90;;
60016;SDS011;45869;52.698;6.210;2023-04-15T01:42:10;10.15;;;5.50;;
60016;SDS011;45869;52.698;6.210;2023-04-15T01:44:36;8.60;;;5.55;;
60016;SDS011;45869;52.698;6.210;2023-04-15T01:47:02;7.60;;;5.22;;
60016;SDS011;45869;52.698;6.210;2023-04-15T01:49:29;10.55;;;5.68;;
60016;SDS011;45869;52.698;6.210;2023-04-15T01:51:56;9.73;;;6.13;;
60016;SDS011;45869;52.698;6.210;2023-04-15T01:54:22;9.85;;;6.18;;
60016;SDS011;45869;52.698;6.210;2023-04-15T01:56:48;10.02;;;5.95;;
60016;SDS011;45869;52.698;6.210;2023-04-15T01:59:14;9.48;;;5.63;;
60016;SDS011;45869;52.698;6.210;2023-04-15T02:01:40;8.27;;;5.85;;
60016;SDS011;45869;52.698;6.210;2023-04-15T02:04:06;8.35;;;5.18;;
60016;SDS011;45869;52.698;6.210;2023-04-15T02:06:32;9.25;;;5.93;;
60016;SDS011;45869;52.698;6.210;2023-04-15T02:08:58;6.95;;;5.45;;
60016;SDS011;45869;52.698;6.210;2023-04-15T02:11:24;7.82;;;5.50;;
60016;SDS011;45869;52.698;6.210;2023-04-15T02:13:52;10.30;;;5.28;;
60016;SDS011;45869;52.698;6.210;2023-04-15T02:16:18;8.93;;;5.18;;
60016;SDS011;45869;52.698;6.210;2023-04-15T02:18:47;6.80;;;5.00;;
60016;SDS011;45869;52.698;6.210;2023-04-15T02:21:13;11.07;;;6.00;;
60016;SDS011;45869;52.698;6.210;2023-04-15T02:23:39;7.72;;;4.82;;
60016;SDS011;45869;52.698;6.210;2023-04-15T02:26:05;9.70;;;6.20;;
60016;SDS011;45869;52.698;6.210;2023-04-15T02:28:35;10.10;;;6.00;;
60016;SDS011;45869;52.698;6.210;2023-04-15T02:31:05;10.80;;;6.35;;
60016;SDS011;45869;52.698;6.210;2023-04-15T02:33:32;10.65;;;6.05;;
60016;SDS011;45869;52.698;6.210;2023-04-15T02:35:58;6.32;;;4.90;;
60016;SDS011;45869;52.698;6.210;2023-04-15T02:38:24;8.98;;;6.15;;
60016;SDS011;45869;52.698;6.210;2023-04-15T02:40:50;10.52;;;5.47;;
60016;SDS011;45869;52.698;6.210;2023-04-15T02:43:19;11.05;;;6.45;;
60016;SDS011;45869;52.698;6.210;2023-04-15T02:45:45;8.85;;;5.85;;
60016;SDS011;45869;52.698;6.210;2023-04-15T02:48:11;9.38;;;6.70;;
60016;SDS011;45869;52.698;6.210;2023-04-15T02:50:37;11.27;;;6.30;;
60016;SDS011;45869;52.698;6.210;2023-04-15T02:53:04;8.65;;;5.63;;
60016;SDS011;45869;52.698;6.210;2023-04-15T02:55:30;9.27;;;6.05;;
60016;SDS011;45869;52.698;6.210;2023-04-15T02:57:56;8.48;;;5.65;;
60016;SDS011;45869;52.698;6.210;2023-04-15T03:00:24;9.40;;;5.22;;
60016;SDS011;45869;52.698;6.210;2023-04-15T03:02:51;8.55;;;5.93;;
60016;SDS011;45869;52.698;6.210;2023-04-15T03:05:20;10.75;;;7.72;;
60016;SDS011;45869;52.698;6.210;2023-04-15T03:07:50;11.82;;;6.20;;
60016;SDS011;45869;52.698;6.210;2023-04-15T03:10:16;10.43;;;5.95;;
60016;SDS011;45869;52.698;6.210;2023-04-15T03:12:45;8.90;;;6.00;;
60016;SDS011;45869;52.698;6.210;2023-04-15T03:15:11;9.15;;;5.78;;
60016;SDS011;45869;52.698;6.210;2023-04-15T03:17:37;8.60;;;5.75;;
60016;SDS011;45869;52.698;6.210;2023-04-15T03:20:03;9.90;;;7.22;;
60016;SDS011;45869;52.698;6.210;2023-04-15T03:22:30;9.55;;;6.50;;
60016;SDS011;45869;52.698;6.210;2023-04-15T03:24:56;9.93;;;6.57;;
60016;SDS011;45869;52.698;6.210;2023-04-15T03:27:22;9.23;;;6.18;;
60016;SDS011;45869;52.698;6.210;2023-04-15T03:29:48;10.93;;;7.28;;
60016;SDS011;45869;52.698;6.210;2023-04-15T03:32:14;12.48;;;5.85;;
60016;SDS011;45869;52.698;6.210;2023-04-15T03:34:40;8.25;;;5.78;;
60016;SDS011;45869;52.698;6.210;2023-04-15T03:37:07;8.50;;;6.18;;
60016;SDS011;45869;52.698;6.210;2023-04-15T03:39:33;11.15;;;7.30;;
60016;SDS011;45869;52.698;6.210;2023-04-15T03:41:59;13.73;;;7.93;;
60016;SDS011;45869;52.698;6.210;2023-04-15T03:44:26;11.98;;;5.75;;
60016;SDS011;45869;52.698;6.210;2023-04-15T03:46:52;8.90;;;6.00;;
60016;SDS011;45869;52.698;6.210;2023-04-15T03:49:21;8.80;;;6.25;;
60016;SDS011;45869;52.698;6.210;2023-04-15T03:51:48;9.88;;;4.90;;
60016;SDS011;45869;52.698;6.210;2023-04-15T03:54:17;10.35;;;5.40;;
60016;SDS011;45869;52.698;6.210;2023-04-15T03:56:43;10.90;;;6.80;;
60016;SDS011;45869;52.698;6.210;2023-04-15T03:59:09;16.27;;;8.73;;
60016;SDS011;45869;52.698;6.210;2023-04-15T04:01:35;10.35;;;7.05;;
60016;SDS011;45869;52.698;6.210;2023-04-15T04:04:01;10.93;;;6.80;;
60016;SDS011;45869;52.698;6.210;2023-04-15T04:06:27;12.52;;;5.60;;
60016;SDS011;45869;52.698;6.210;2023-04-15T04:08:53;10.60;;;6.82;;
60016;SDS011;45869;52.698;6.210;2023-04-15T04:11:19;9.40;;;6.90;;
60016;SDS011;45869;52.698;6.210;2023-04-15T04:13:46;11.85;;;7.10;;
60016;SDS011;45869;52.698;6.210;2023-04-15T04:16:12;10.98;;;7.65;;
60016;SDS011;45869;52.698;6.210;2023-04-15T04:18:37;11.88;;;7.43;;
60016;SDS011;45869;52.698;6.210;2023-04-15T04:21:03;9.57;;;6.78;;
60016;SDS011;45869;52.698;6.210;2023-04-15T04:23:29;10.90;;;5.13;;
60016;SDS011;45869;52.698;6.210;2023-04-15T04:25:55;8.63;;;5.85;;
60016;SDS011;45869;52.698;6.210;2023-04-15T04:28:21;9.48;;;6.82;;
60016;SDS011;45869;52.698;6.210;2023-04-15T04:30:50;12.23;;;8.45;;
60016;SDS011;45869;52.698;6.210;2023-04-15T04:33:16;11.45;;;5.55;;
60016;SDS011;45869;52.698;6.210;2023-04-15T04:35:42;9.85;;;7.13;;
60016;SDS011;45869;52.698;6.210;2023-04-15T04:38:11;10.20;;;7.10;;
60016;SDS011;45869;52.698;6.210;2023-04-15T04:40:37;10.10;;;6.97;;
60016;SDS011;45869;52.698;6.210;2023-04-15T04:43:03;12.45;;;6.22;;
60016;SDS011;45869;52.698;6.210;2023-04-15T04:45:29;9.30;;;6.88;;
60016;SDS011;45869;52.698;6.210;2023-04-15T04:47:55;11.70;;;7.60;;
60016;SDS011;45869;52.698;6.210;2023-04-15T04:50:21;9.68;;;6.90;;
60016;SDS011;45869;52.698;6.210;2023-04-15T04:52:47;11.23;;;7.70;;
60016;SDS011;45869;52.698;6.210;2023-04-15T04:55:13;10.57;;;5.25;;
60016;SDS011;45869;52.698;6.210;2023-04-15T04:57:39;9.25;;;6.85;;
60016;SDS011;45869;52.698;6.210;2023-04-15T05:00:06;10.32;;;7.20;;
60016;SDS011;45869;52.698;6.210;2023-04-15T05:02:33;11.35;;;7.53;;
60016;SDS011;45869;52.698;6.210;2023-04-15T05:05:01;12.68;;;6.03;;
60016;SDS011;45869;52.698;6.210;2023-04-15T05:07:27;11.57;;;8.45;;
60016;SDS011;45869;52.698;6.210;2023-04-15T05:09:53;11.00;;;8.13;;
60016;SDS011;45869;52.698;6.210;2023-04-15T05:12:22;13.90;;;6.32;;
60016;SDS011;45869;52.698;6.210;2023-04-15T05:14:48;10.35;;;7.32;;
60016;SDS011;45869;52.698;6.210;2023-04-15T05:17:14;11.90;;;8.40;;
60016;SDS011;45869;52.698;6.210;2023-04-15T05:19:43;14.13;;;6.57;;
60016;SDS011;45869;52.698;6.210;2023-04-15T05:22:12;12.02;;;6.43;;
60016;SDS011;45869;52.698;6.210;2023-04-15T05:24:41;13.52;;;9.38;;
60016;SDS011;45869;52.698;6.210;2023-04-15T05:27:07;11.82;;;8.00;;
60016;SDS011;45869;52.698;6.210;2023-04-15T05:29:38;11.88;;;8.50;;
60016;SDS011;45869;52.698;6.210;2023-04-15T05:32:04;13.75;;;7.30;;
60016;SDS011;45869;52.698;6.210;2023-04-15T05:34:30;13.88;;;10.57;;
60016;SDS011;45869;52.698;6.210;2023-04-15T05:36:56;10.50;;;8.05;;
60016;SDS011;45869;52.698;6.210;2023-04-15T05:39:22;11.85;;;8.68;;
60016;SDS011;45869;52.698;6.210;2023-04-15T05:41:48;13.18;;;8.52;;
60016;SDS011;45869;52.698;6.210;2023-04-15T05:44:18;11.85;;;6.20;;
60016;SDS011;45869;52.698;6.210;2023-04-15T05:46:44;12.05;;;8.40;;
60016;SDS011;45869;52.698;6.210;2023-04-15T05:49:10;9.77;;;7.57;;
60016;SDS011;45869;52.698;6.210;2023-04-15T05:51:36;12.40;;;9.43;;
60016;SDS011;45869;52.698;6.210;2023-04-15T05:54:02;13.50;;;9.82;;
60016;SDS011;45869;52.698;6.210;2023-04-15T05:56:28;12.60;;;9.63;;
60016;SDS011;45869;52.698;6.210;2023-04-15T05:58:54;12.95;;;9.68;;
60016;SDS011;45869;52.698;6.210;2023-04-15T06:01:20;13.70;;;7.40;;
60016;SDS011;45869;52.698;6.210;2023-04-15T06:03:46;14.15;;;10.43;;
60016;SDS011;45869;52.698;6.210;2023-04-15T06:06:12;17.92;;;11.73;;
60016;SDS011;45869;52.698;6.210;2023-04-15T06:08:39;14.50;;;10.07;;
60016;SDS011;45869;52.698;6.210;2023-04-15T06:11:05;15.48;;;11.43;;
60016;SDS011;45869;52.698;6.210;2023-04-15T06:13:31;16.25;;;11.60;;
60016;SDS011;45869;52.698;6.210;2023-04-15T06:15:58;16.88;;;11.27;;
60016;SDS011;45869;52.698;6.210;2023-04-15T06:18:24;14.88;;;9.98;;
60016;SDS011;45869;52.698;6.210;2023-04-15T06:20:50;14.82;;;10.02;;
60016;SDS011;45869;52.698;6.210;2023-04-15T06:23:16;15.70;;;11.15;;
60016;SDS011;45869;52.698;6.210;2023-04-15T06:25:42;13.10;;;10.07;;
60016;SDS011;45869;52.698;6.210;2023-04-15T06:28:08;14.73;;;7.25;;
60016;SDS011;45869;52.698;6.210;2023-04-15T06:30:35;14.95;;;11.23;;
60016;SDS011;45869;52.698;6.210;2023-04-15T06:33:02;15.80;;;10.63;;
60016;SDS011;45869;52.698;6.210;2023-04-15T06:35:30;13.93;;;9.90;;
60016;SDS011;45869;52.698;6.210;2023-04-15T06:37:56;12.48;;;9.35;;
60016;SDS011;45869;52.698;6.210;2023-04-15T06:40:22;13.35;;;9.35;;
60016;SDS011;45869;52.698;6.210;2023-04-15T06:42:48;13.43;;;10.52;;
60016;SDS011;45869;52.698;6.210;2023-04-15T06:45:14;13.30;;;9.85;;
60016;SDS011;45869;52.698;6.210;2023-04-15T06:47:41;13.30;;;10.15;;
60016;SDS011;45869;52.698;6.210;2023-04-15T06:50:07;12.40;;;8.88;;
60016;SDS011;45869;52.698;6.210;2023-04-15T06:52:34;13.02;;;10.05;;
60016;SDS011;45869;52.698;6.210;2023-04-15T06:55:00;14.07;;;9.73;;
60016;SDS011;45869;52.698;6.210;2023-04-15T06:57:26;13.38;;;10.40;;
60016;SDS011;45869;52.698;6.210;2023-04-15T06:59:53;13.38;;;10.20;;
60016;SDS011;45869;52.698;6.210;2023-04-15T07:02:19;11.90;;;9.40;;
60016;SDS011;45869;52.698;6.210;2023-04-15T07:04:45;14.55;;;9.45;;
60016;SDS011;45869;52.698;6.210;2023-04-15T07:07:11;12.27;;;9.70;;
60016;SDS011;45869;52.698;6.210;2023-04-15T07:09:37;12.07;;;8.77;;
60016;SDS011;45869;52.698;6.210;2023-04-15T07:12:03;14.68;;;10.27;;
60016;SDS011;45869;52.698;6.210;2023-04-15T07:14:29;12.50;;;9.05;;
60016;SDS011;45869;52.698;6.210;2023-04-15T07:16:58;13.20;;;9.25;;
60016;SDS011;45869;52.698;6.210;2023-04-15T07:19:24;13.15;;;9.32;;
60016;SDS011;45869;52.698;6.210;2023-04-15T07:21:50;12.50;;;9.18;;
60016;SDS011;45869;52.698;6.210;2023-04-15T07:24:19;12.95;;;9.60;;
60016;SDS011;45869;52.698;6.210;2023-04-15T07:26:54;12.15;;;9.00;;
60016;SDS011;45869;52.698;6.210;2023-04-15T07:29:22;11.40;;;8.48;;
60016;SDS011;45869;52.698;6.210;2023-04-15T07:31:48;12.65;;;8.68;;
60016;SDS011;45869;52.698;6.210;2023-04-15T07:34:14;11.25;;;8.00;;
60016;SDS011;45869;52.698;6.210;2023-04-15T07:36:41;12.40;;;8.00;;
60016;SDS011;45869;52.698;6.210;2023-04-15T07:39:07;11.13;;;7.20;;
60016;SDS011;45869;52.698;6.210;2023-04-15T07:41:33;11.57;;;7.82;;
60016;SDS011;45869;52.698;6.210;2023-04-15T07:43:59;12.32;;;7.75;;
60016;SDS011;45869;52.698;6.210;2023-04-15T07:46:25;12.00;;;7.82;;
60016;SDS011;45869;52.698;6.210;2023-04-15T07:48:51;11.52;;;7.55;;
60016;SDS011;45869;52.698;6.210;2023-04-15T07:51:18;11.15;;;7.30;;
60016;SDS011;45869;52.698;6.210;2023-04-15T07:53:45;9.27;;;6.78;;
60016;SDS011;45869;52.698;6.210;2023-04-15T07:56:11;9.95;;;7.30;;
60016;SDS011;45869;52.698;6.210;2023-04-15T07:58:37;9.82;;;6.88;;
60016;SDS011;45869;52.698;6.210;2023-04-15T08:01:03;9.77;;;7.40;;
60016;SDS011;45869;52.698;6.210;2023-04-15T08:03:33;11.13;;;7.05;;
60016;SDS011;45869;52.698;6.210;2023-04-15T08:05:59;9.60;;;6.38;;
60016;SDS011;45869;52.698;6.210;2023-04-15T08:08:25;8.70;;;6.00;;
60016;SDS011;45869;52.698;6.210;2023-04-15T08:10:52;9.65;;;6.10;;
60016;SDS011;45869;52.698;6.210;2023-04-15T08:13:18;35.95;;;7.63;;
60016;SDS011;45869;52.698;6.210;2023-04-15T08:15:44;25.55;;;6.63;;
60016;SDS011;45869;52.698;6.210;2023-04-15T08:18:10;10.65;;;6.07;;
60016;SDS011;45869;52.698;6.210;2023-04-15T08:20:38;46.95;;;8.38;;
60016;SDS011;45869;52.698;6.210;2023-04-15T08:23:05;34.90;;;8.07;;
60016;SDS011;45869;52.698;6.210;2023-04-15T08:25:31;15.70;;;6.18;;
60016;SDS011;45869;52.698;6.210;2023-04-15T08:27:57;10.98;;;5.90;;
60016;SDS011;45869;52.698;6.210;2023-04-15T08:30:23;7.78;;;5.13;;
60016;SDS011;45869;52.698;6.210;2023-04-15T08:32:49;8.52;;;5.53;;
60016;SDS011;45869;52.698;6.210;2023-04-15T08:35:18;8.18;;;5.53;;
60016;SDS011;45869;52.698;6.210;2023-04-15T08:37:44;8.32;;;5.97;;
60016;SDS011;45869;52.698;6.210;2023-04-15T08:40:10;9.27;;;5.63;;
60016;SDS011;45869;52.698;6.210;2023-04-15T08:42:40;9.25;;;4.95;;
60016;SDS011;45869;52.698;6.210;2023-04-15T08:45:07;7.05;;;4.72;;
60016;SDS011;45869;52.698;6.210;2023-04-15T08:47:35;6.47;;;4.45;;
60016;SDS011;45869;52.698;6.210;2023-04-15T08:50:08;6.28;;;3.95;;
60016;SDS011;45869;52.698;6.210;2023-04-15T08:52:38;6.10;;;4.33;;
60016;SDS011;45869;52.698;6.210;2023-04-15T08:55:04;7.45;;;4.32;;
60016;SDS011;45869;52.698;6.210;2023-04-15T08:57:32;6.03;;;4.25;;
60016;SDS011;45869;52.698;6.210;2023-04-15T09:00:00;6.03;;;3.90;;
60016;SDS011;45869;52.698;6.210;2023-04-15T09:02:28;4.70;;;3.20;;
60016;SDS011;45869;52.698;6.210;2023-04-15T09:04:54;7.13;;;2.92;;
60016;SDS011;45869;52.698;6.210;2023-04-15T09:07:20;4.32;;;2.88;;
60016;SDS011;45869;52.698;6.210;2023-04-15T09:09:47;7.25;;;3.17;;
60016;SDS011;45869;52.698;6.210;2023-04-15T09:12:13;5.25;;;2.97;;
60016;SDS011;45869;52.698;6.210;2023-04-15T09:14:41;4.25;;;2.70;;
60016;SDS011;45869;52.698;6.210;2023-04-15T09:17:07;4.78;;;2.63;;
60016;SDS011;45869;52.698;6.210;2023-04-15T09:19:35;4.95;;;3.08;;
60016;SDS011;45869;52.698;6.210;2023-04-15T09:22:01;5.30;;;3.58;;
60016;SDS011;45869;52.698;6.210;2023-04-15T09:24:37;8.18;;;3.85;;
60016;SDS011;45869;52.698;6.210;2023-04-15T09:27:04;5.68;;;3.72;;
60016;SDS011;45869;52.698;6.210;2023-04-15T09:29:33;7.75;;;3.70;;
60016;SDS011;45869;52.698;6.210;2023-04-15T09:32:10;5.68;;;3.55;;
60016;SDS011;45869;52.698;6.210;2023-04-15T09:34:37;7.72;;;4.10;;
60016;SDS011;45869;52.698;6.210;2023-04-15T09:37:03;5.93;;;3.78;;
60016;SDS011;45869;52.698;6.210;2023-04-15T09:39:48;5.40;;;3.50;;
60016;SDS011;45869;52.698;6.210;2023-04-15T09:42:15;5.85;;;3.30;;
60016;SDS011;45869;52.698;6.210;2023-04-15T09:44:47;3.40;;;2.40;;
60016;SDS011;45869;52.698;6.210;2023-04-15T09:47:25;6.00;;;3.38;;
60016;SDS011;45869;52.698;6.210;2023-04-15T09:49:55;5.60;;;3.40;;
60016;SDS011;45869;52.698;6.210;2023-04-15T09:52:21;4.47;;;2.88;;
60016;SDS011;45869;52.698;6.210;2023-04-15T09:54:47;5.45;;;2.60;;
60016;SDS011;45869;52.698;6.210;2023-04-15T09:57:13;6.43;;;2.45;;
60016;SDS011;45869;52.698;6.210;2023-04-15T09:59:39;4.68;;;2.38;;
60016;SDS011;45869;52.698;6.210;2023-04-15T10:02:05;4.60;;;2.50;;
60016;SDS011;45869;52.698;6.210;2023-04-15T10:04:35;4.45;;;2.10;;
60016;SDS011;45869;52.698;6.210;2023-04-15T10:07:04;4.30;;;1.83;;
60016;SDS011;45869;52.698;6.210;2023-04-15T10:09:30;5.15;;;1.85;;
60016;SDS011;45869;52.698;6.210;2023-04-15T10:12:00;4.05;;;1.80;;
60016;SDS011;45869;52.698;6.210;2023-04-15T10:14:27;5.38;;;2.25;;
60016;SDS011;45869;52.698;6.210;2023-04-15T10:16:53;3.58;;;1.80;;
60016;SDS011;45869;52.698;6.210;2023-04-15T10:19:21;3.95;;;2.05;;
60016;SDS011;45869;52.698;6.210;2023-04-15T10:21:49;4.28;;;2.20;;
60016;SDS011;45869;52.698;6.210;2023-04-15T10:24:16;4.53;;;1.88;;
60016;SDS011;45869;52.698;6.210;2023-04-15T10:26:42;4.15;;;2.10;;
60016;SDS011;45869;52.698;6.210;2023-04-15T10:29:09;6.22;;;2.30;;
60016;SDS011;45869;52.698;6.210;2023-04-15T10:31:35;5.55;;;2.22;;
60016;SDS011;45869;52.698;6.210;2023-04-15T10:34:02;5.70;;;1.98;;
60016;SDS011;45869;52.698;6.210;2023-04-15T10:36:30;4.13;;;2.00;;
60016;SDS011;45869;52.698;6.210;2023-04-15T10:38:57;5.85;;;1.85;;
60016;SDS011;45869;52.698;6.210;2023-04-15T10:41:23;3.92;;;1.70;;
60016;SDS011;45869;52.698;6.210;2023-04-15T10:43:55;4.50;;;1.98;;
60016;SDS011;45869;52.698;6.210;2023-04-15T10:46:34;3.45;;;1.55;;
60016;SDS011;45869;52.698;6.210;2023-04-15T10:49:06;4.05;;;1.60;;
60016;SDS011;45869;52.698;6.210;2023-04-15T10:51:32;5.00;;;1.98;;
60016;SDS011;45869;52.698;6.210;2023-04-15T10:53:58;6.55;;;1.90;;
60016;SDS011;45869;52.698;6.210;2023-04-15T10:56:24;4.10;;;1.50;;
60016;SDS011;45869;52.698;6.210;2023-04-15T10:58:52;3.55;;;1.70;;
60016;SDS011;45869;52.698;6.210;2023-04-15T11:01:19;3.20;;;1.30;;
60016;SDS011;45869;52.698;6.210;2023-04-15T11:03:47;2.97;;;1.30;;
60016;SDS011;45869;52.698;6.210;2023-04-15T11:06:14;1.83;;;1.00;;
60016;SDS011;45869;52.698;6.210;2023-04-15T11:08:57;1.70;;;0.80;;
60016;SDS011;45869;52.698;6.210;2023-04-15T11:12:09;2.40;;;0.70;;
60016;SDS011;45869;52.698;6.210;2023-04-15T11:14:13;2.88;;;0.80;;
60016;SDS011;45869;52.698;6.210;2023-04-15T11:16:43;3.53;;;1.10;;
60016;SDS011;45869;52.698;6.210;2023-04-15T11:19:09;3.53;;;0.60;;
60016;SDS011;45869;52.698;6.210;2023-04-15T11:21:35;1.58;;;0.73;;
60016;SDS011;45869;52.698;6.210;2023-04-15T11:24:01;3.15;;;0.98;;
60016;SDS011;45869;52.698;6.210;2023-04-15T11:26:34;3.08;;;1.20;;
60016;SDS011;45869;52.698;6.210;2023-04-15T11:29:00;2.38;;;0.80;;
60016;SDS011;45869;52.698;6.210;2023-04-15T11:31:26;2.42;;;0.70;;
60016;SDS011;45869;52.698;6.210;2023-04-15T11:33:54;1.20;;;0.60;;
60016;SDS011;45869;52.698;6.210;2023-04-15T11:36:22;2.97;;;0.80;;
60016;SDS011;45869;52.698;6.210;2023-04-15T11:38:50;2.55;;;0.90;;
60016;SDS011;45869;52.698;6.210;2023-04-15T11:41:19;2.97;;;0.95;;
60016;SDS011;45869;52.698;6.210;2023-04-15T11:43:45;1.58;;;0.70;;
60016;SDS011;45869;52.698;6.210;2023-04-15T11:46:11;1.38;;;0.70;;
60016;SDS011;45869;52.698;6.210;2023-04-15T11:48:40;2.08;;;0.80;;
60016;SDS011;45869;52.698;6.210;2023-04-15T11:51:06;2.03;;;0.82;;
60016;SDS011;45869;52.698;6.210;2023-04-15T11:53:36;3.75;;;1.00;;
60016;SDS011;45869;52.698;6.210;2023-04-15T11:56:07;2.05;;;0.95;;
60016;SDS011;45869;52.698;6.210;2023-04-15T11:58:33;2.72;;;1.05;;
60016;SDS011;45869;52.698;6.210;2023-04-15T12:01:03;4.00;;;0.90;;
60016;SDS011;45869;52.698;6.210;2023-04-15T12:03:36;2.13;;;0.80;;
60016;SDS011;45869;52.698;6.210;2023-04-15T12:13:49;2.72;;;0.70;;
60016;SDS011;45869;52.698;6.210;2023-04-15T12:16:16;3.08;;;1.00;;
60016;SDS011;45869;52.698;6.210;2023-04-15T12:18:44;2.42;;;0.70;;
60016;SDS011;45869;52.698;6.210;2023-04-15T12:21:10;1.90;;;0.80;;
60016;SDS011;45869;52.698;6.210;2023-04-15T12:23:46;3.20;;;0.93;;
60016;SDS011;45869;52.698;6.210;2023-04-15T12:26:13;2.55;;;1.00;;
60016;SDS011;45869;52.698;6.210;2023-04-15T12:28:40;3.85;;;1.10;;
60016;SDS011;45869;52.698;6.210;2023-04-15T12:31:09;3.13;;;1.00;;
60016;SDS011;45869;52.698;6.210;2023-04-15T12:33:35;4.13;;;1.25;;
60016;SDS011;45869;52.698;6.210;2023-04-15T12:36:01;2.65;;;1.10;;
60016;SDS011;45869;52.698;6.210;2023-04-15T12:38:27;3.67;;;0.90;;
60016;SDS011;45869;52.698;6.210;2023-04-15T12:40:53;6.97;;;1.40;;
60016;SDS011;45869;52.698;6.210;2023-04-15T12:43:22;3.33;;;1.30;;
60016;SDS011;45869;52.698;6.210;2023-04-15T12:45:48;3.65;;;1.20;;
60016;SDS011;45869;52.698;6.210;2023-04-15T12:48:15;4.95;;;1.23;;
60016;SDS011;45869;52.698;6.210;2023-04-15T12:50:41;4.30;;;1.30;;
60016;SDS011;45869;52.698;6.210;2023-04-15T12:53:10;3.55;;;1.30;;
60016;SDS011;45869;52.698;6.210;2023-04-15T12:55:36;3.60;;;1.17;;
60016;SDS011;45869;52.698;6.210;2023-04-15T12:58:02;3.88;;;1.58;;
60016;SDS011;45869;52.698;6.210;2023-04-15T13:00:28;5.63;;;1.45;;
60016;SDS011;45869;52.698;6.210;2023-04-15T13:02:57;8.10;;;1.83;;
60016;SDS011;45869;52.698;6.210;2023-04-15T13:05:23;4.95;;;1.42;;
60016;SDS011;45869;52.698;6.210;2023-04-15T13:07:49;7.60;;;1.90;;
60016;SDS011;45869;52.698;6.210;2023-04-15T13:10:15;9.18;;;1.50;;
60016;SDS011;45869;52.698;6.210;2023-04-15T13:12:41;6.97;;;1.58;;
60016;SDS011;45869;52.698;6.210;2023-04-15T13:15:10;4.70;;;1.30;;
60016;SDS011;45869;52.698;6.210;2023-04-15T13:17:37;5.45;;;1.30;;
60016;SDS011;45869;52.698;6.210;2023-04-15T13:20:03;5.38;;;1.20;;
60016;SDS011;45869;52.698;6.210;2023-04-15T13:22:29;4.97;;;1.20;;
60016;SDS011;45869;52.698;6.210;2023-04-15T13:24:58;7.13;;;1.52;;
60016;SDS011;45869;52.698;6.210;2023-04-15T13:27:24;6.85;;;1.83;;
60016;SDS011;45869;52.698;6.210;2023-04-15T13:29:53;6.32;;;1.50;;
60016;SDS011;45869;52.698;6.210;2023-04-15T13:32:19;6.15;;;1.73;;
60016;SDS011;45869;52.698;6.210;2023-04-15T13:34:45;4.93;;;1.48;;
60016;SDS011;45869;52.698;6.210;2023-04-15T13:37:11;3.92;;;1.10;;
60016;SDS011;45869;52.698;6.210;2023-04-15T13:39:40;7.93;;;1.50;;
60016;SDS011;45869;52.698;6.210;2023-04-15T13:42:09;6.30;;;1.15;;
60016;SDS011;45869;52.698;6.210;2023-04-15T13:44:35;5.63;;;1.27;;
60016;SDS011;45869;52.698;6.210;2023-04-15T13:47:01;4.90;;;1.02;;
60016;SDS011;45869;52.698;6.210;2023-04-15T13:49:27;6.82;;;1.52;;
60016;SDS011;45869;52.698;6.210;2023-04-15T13:51:53;5.05;;;1.13;;
60016;SDS011;45869;52.698;6.210;2023-04-15T13:54:19;17.65;;;1.90;;
60016;SDS011;45869;52.698;6.210;2023-04-15T13:56:45;5.70;;;1.35;;
60016;SDS011;45869;52.698;6.210;2023-04-15T13:59:11;8.45;;;1.55;;
60016;SDS011;45869;52.698;6.210;2023-04-15T14:01:37;4.13;;;0.98;;
60016;SDS011;45869;52.698;6.210;2023-04-15T14:04:05;5.10;;;1.25;;
60016;SDS011;45869;52.698;6.210;2023-04-15T14:06:31;5.47;;;1.40;;
60016;SDS011;45869;52.698;6.210;2023-04-15T14:08:57;8.80;;;1.42;;
60016;SDS011;45869;52.698;6.210;2023-04-15T14:11:23;15.98;;;2.20;;
60016;SDS011;45869;52.698;6.210;2023-04-15T14:13:52;14.68;;;1.70;;
60016;SDS011;45869;52.698;6.210;2023-04-15T14:16:18;10.98;;;1.35;;
60016;SDS011;45869;52.698;6.210;2023-04-15T14:18:44;7.28;;;1.33;;
60016;SDS011;45869;52.698;6.210;2023-04-15T14:21:10;13.43;;;1.65;;
60016;SDS011;45869;52.698;6.210;2023-04-15T14:23:36;7.72;;;1.25;;
60016;SDS011;45869;52.698;6.210;2023-04-15T14:26:02;7.78;;;1.20;;
60016;SDS011;45869;52.698;6.210;2023-04-15T14:28:28;10.38;;;1.48;;
60016;SDS011;45869;52.698;6.210;2023-04-15T14:30:54;7.85;;;1.05;;
60016;SDS011;45869;52.698;6.210;2023-04-15T14:33:20;6.30;;;1.30;;
60016;SDS011;45869;52.698;6.210;2023-04-15T14:35:48;4.97;;;1.17;;
60016;SDS011;45869;52.698;6.210;2023-04-15T14:38:14;8.38;;;1.30;;
60016;SDS011;45869;52.698;6.210;2023-04-15T14:40:40;5.13;;;1.00;;
60016;SDS011;45869;52.698;6.210;2023-04-15T14:43:06;5.32;;;1.00;;
60016;SDS011;45869;52.698;6.210;2023-04-15T14:45:32;6.97;;;1.00;;
60016;SDS011;45869;52.698;6.210;2023-04-15T14:47:58;6.25;;;1.10;;
60016;SDS011;45869;52.698;6.210;2023-04-15T14:50:24;9.93;;;1.30;;